createdAt,value
2018-05-29T00:00:08.101Z,73.84
2018-05-29T00:02:37.218Z,73.71
2018-05-29T00:05:06.298Z,74.13
2018-05-29T00:07:34.636Z,73.96
2018-05-29T00:10:02.951Z,73.39
2018-05-29T00:12:32.763Z,73.35
2018-05-29T00:15:01.081Z,73.26
2018-05-29T00:17:29.380Z,72.91
2018-05-29T00:19:57.685Z,73.13
2018-05-29T00:22:26.983Z,72.64
2018-05-29T00:24:55.359Z,72.89
2018-05-29T00:27:23.671Z,72.61
2018-05-29T00:29:53.150Z,72.05
2018-05-29T00:32:21.453Z,72.09
2018-05-29T00:34:50.529Z,71.86
2018-05-29T00:37:20.370Z,71.91
2018-05-29T00:39:49.705Z,71.57
2018-05-29T00:42:18.343Z,71.91
2018-05-29T00:44:47.476Z,71.96
2018-05-29T00:47:15.776Z,72.22
2018-05-29T00:49:44.698Z,71.65
2018-05-29T00:52:14.600Z,71.64
2018-05-29T00:54:43.390Z,71.88
2018-05-29T00:57:11.711Z,72.21
2018-05-29T00:59:40.971Z,72.41
2018-05-29T01:02:10.034Z,71.87
2018-05-29T01:04:38.649Z,71.62
2018-05-29T01:07:07.241Z,72.05
2018-05-29T01:09:35.764Z,71.90
2018-05-29T01:12:04.830Z,71.88
2018-05-29T01:14:33.975Z,71.45
2018-05-29T01:17:03.029Z,71.30
2018-05-29T01:19:31.340Z,71.74
2018-05-29T01:22:00.899Z,72.02
2018-05-29T01:24:29.429Z,71.17
2018-05-29T01:26:57.801Z,71.60
2018-05-29T01:29:27.970Z,71.56
2018-05-29T01:31:57.121Z,71.54
2018-05-29T01:34:29.609Z,71.63
2018-05-29T01:36:58.742Z,71.69
2018-05-29T01:39:27.152Z,71.56
2018-05-29T01:41:55.959Z,71.89
2018-05-29T01:44:25.057Z,72.07
2018-05-29T01:46:54.136Z,71.78
2018-05-29T01:49:22.425Z,71.42
2018-05-29T01:51:51.599Z,71.68
2018-05-29T01:54:19.974Z,71.51
2018-05-29T01:56:48.900Z,71.25
2018-05-29T01:59:18.856Z,71.85
2018-05-29T02:01:50.457Z,71.23
2018-05-29T02:04:19.694Z,70.78
2018-05-29T02:06:47.993Z,71.26
2018-05-29T02:09:16.465Z,71.58
2018-05-29T02:11:44.887Z,71.18
2018-05-29T02:14:13.194Z,71.10
2018-05-29T02:16:42.522Z,71.63
2018-05-29T02:19:12.364Z,71.22
2018-05-29T02:21:43.110Z,71.20
2018-05-29T02:24:11.904Z,72.02
2018-05-29T02:26:40.564Z,71.50
2018-05-29T02:29:10.089Z,71.64
2018-05-29T02:31:38.604Z,72.31
2018-05-29T02:34:07.675Z,72.67
2018-05-29T02:36:35.976Z,72.30
2018-05-29T02:39:05.071Z,72.52
2018-05-29T02:41:33.884Z,72.46
2018-05-29T02:44:03.496Z,72.80
2018-05-29T02:46:32.565Z,72.74
2018-05-29T02:49:01.137Z,73.01
2018-05-29T02:51:30.323Z,73.16
2018-05-29T02:53:58.621Z,72.90
2018-05-29T02:56:28.044Z,73.25
2018-05-29T02:58:57.314Z,72.82
2018-05-29T03:01:25.628Z,72.79
2018-05-29T03:03:54.716Z,72.99
2018-05-29T03:06:24.620Z,73.40
2018-05-29T03:08:53.045Z,73.52
2018-05-29T03:11:21.888Z,73.61
2018-05-29T03:13:53.565Z,73.96
2018-05-29T03:16:22.644Z,73.69
2018-05-29T03:25:41.142Z,75.39
2018-05-29T03:28:10.250Z,75.18
2018-05-29T03:30:38.864Z,74.79
2018-05-29T03:33:07.762Z,75.77
2018-05-29T03:35:36.061Z,76.03
2018-05-29T03:38:04.395Z,75.54
2018-05-29T03:40:34.581Z,75.54
2018-05-29T03:43:02.873Z,75.48
2018-05-29T03:45:32.845Z,75.93
2018-05-29T03:48:01.137Z,76.43
2018-05-29T03:50:29.973Z,76.40
2018-05-29T03:52:59.517Z,76.94
2018-05-29T03:55:27.814Z,76.40
2018-05-29T03:57:56.114Z,75.52
2018-05-29T04:00:24.479Z,76.42
2018-05-29T04:02:54.436Z,76.33
2018-05-29T04:05:24.490Z,75.81
2018-05-29T04:07:53.613Z,75.65
2018-05-29T04:10:22.042Z,75.80
2018-05-29T04:12:51.984Z,76.03
2018-05-29T04:15:21.946Z,76.83
2018-05-29T04:17:51.124Z,77.10
2018-05-29T04:20:20.641Z,77.58
2018-05-29T04:22:48.949Z,76.37
2018-05-29T04:25:18.064Z,77.65
2018-05-29T04:27:47.239Z,77.43
2018-05-29T04:30:16.327Z,77.11
2018-05-29T04:32:45.305Z,77.18
2018-05-29T04:35:13.922Z,77.07
2018-05-29T04:37:43.011Z,77.13
2018-05-29T04:40:11.564Z,77.21
2018-05-29T04:42:39.879Z,76.83
2018-05-29T04:45:09.114Z,77.30
2018-05-29T04:47:38.523Z,76.99
2018-05-29T04:50:06.842Z,77.32
2018-05-29T04:52:35.161Z,76.15
2018-05-29T04:55:03.475Z,76.20
2018-05-29T04:57:32.290Z,76.70
2018-05-29T05:00:02.014Z,76.68
2018-05-29T05:02:31.437Z,76.32
2018-05-29T05:05:01.372Z,75.46
2018-05-29T05:07:29.788Z,75.24
2018-05-29T05:09:59.263Z,76.07
2018-05-29T05:12:29.526Z,75.36
2018-05-29T05:14:58.642Z,74.90
2018-05-29T05:17:27.349Z,76.15
2018-05-29T05:19:56.763Z,75.65
2018-05-29T05:22:26.270Z,75.07
2018-05-29T05:24:55.425Z,75.63
2018-05-29T05:27:25.441Z,74.73
2018-05-29T05:29:54.293Z,74.77
2018-05-29T05:32:22.614Z,74.83
2018-05-29T05:34:51.267Z,74.29
2018-05-29T05:37:19.674Z,73.84
2018-05-29T05:39:47.973Z,73.29
2018-05-29T05:42:16.933Z,74.06
2018-05-29T05:44:45.262Z,73.91
2018-05-29T05:47:14.942Z,73.69
2018-05-29T05:49:43.790Z,73.27
2018-05-29T05:52:12.697Z,74.06
2018-05-29T05:54:41.714Z,74.32
2018-05-29T05:57:10.771Z,73.87
2018-05-29T05:59:40.218Z,73.34
2018-05-29T06:02:09.355Z,72.87
2018-05-29T06:04:40.037Z,71.92
2018-05-29T06:07:08.751Z,72.16
2018-05-29T06:09:38.433Z,71.21
2018-05-29T06:12:06.862Z,71.91
2018-05-29T06:14:35.924Z,72.17
2018-05-29T06:17:04.234Z,71.46
2018-05-29T06:19:33.879Z,70.71
2018-05-29T06:22:02.948Z,70.28
2018-05-29T06:24:32.429Z,70.56
2018-05-29T06:27:02.645Z,69.72
2018-05-29T06:29:31.362Z,70.86
2018-05-29T06:32:01.521Z,69.53
2018-05-29T06:34:29.856Z,70.78
2018-05-29T06:36:58.611Z,71.30
2018-05-29T06:39:28.515Z,70.25
2018-05-29T06:41:59.056Z,70.05
2018-05-29T06:44:27.482Z,67.97
2018-05-29T06:46:58.203Z,68.66
2018-05-29T06:49:26.677Z,67.30
2018-05-29T06:51:55.923Z,68.31
2018-05-29T06:54:25.945Z,68.02
2018-05-29T06:56:54.792Z,68.76
2018-05-29T06:59:23.903Z,67.68
2018-05-29T07:01:53.112Z,66.90
2018-05-29T07:04:21.435Z,68.04
2018-05-29T07:06:49.814Z,67.82
2018-05-29T07:09:29.981Z,66.04
2018-05-29T07:11:58.460Z,66.52
2018-05-29T07:14:27.700Z,66.54
2018-05-29T07:16:56.763Z,66.44
2018-05-29T07:19:25.121Z,65.14
2018-05-29T07:21:53.441Z,65.65
2018-05-29T07:24:24.041Z,64.23
2018-05-29T07:26:53.718Z,64.17
2018-05-29T07:29:22.018Z,65.31
2018-05-29T07:31:51.287Z,64.12
2018-05-29T07:34:20.929Z,64.87
2018-05-29T07:36:49.461Z,64.00
2018-05-29T07:39:18.920Z,64.55
2018-05-29T07:41:47.316Z,64.64
2018-05-29T07:44:16.240Z,64.01
2018-05-29T07:46:45.323Z,63.85
2018-05-29T07:49:13.979Z,63.79
2018-05-29T07:51:42.379Z,62.20
2018-05-29T07:54:11.317Z,63.62
2018-05-29T07:56:39.752Z,64.11
2018-05-29T07:59:08.818Z,63.33
2018-05-29T08:01:37.425Z,62.63
2018-05-29T08:04:05.856Z,62.97
2018-05-29T08:06:34.352Z,64.21
2018-05-29T08:09:03.213Z,62.49
2018-05-29T08:11:33.096Z,64.08
2018-05-29T08:14:02.598Z,63.48
2018-05-29T08:16:31.142Z,63.65
2018-05-29T08:19:00.118Z,62.86
2018-05-29T08:21:29.915Z,61.77
2018-05-29T08:23:58.644Z,61.60
2018-05-29T08:26:27.694Z,61.47
2018-05-29T08:28:56.060Z,61.62
2018-05-29T08:31:24.990Z,62.09
2018-05-29T08:33:54.079Z,61.81
2018-05-29T08:36:23.265Z,61.27
2018-05-29T08:38:52.342Z,62.58
2018-05-29T08:41:21.400Z,60.31
2018-05-29T08:43:49.835Z,63.51
2018-05-29T08:46:18.472Z,60.83
2018-05-29T08:48:47.311Z,61.49
2018-05-29T08:51:15.713Z,60.06
2018-05-29T08:53:44.784Z,59.74
2018-05-29T08:56:14.381Z,60.44
2018-05-29T08:58:43.472Z,60.56
2018-05-29T09:01:12.374Z,59.81
2018-05-29T09:03:41.777Z,59.54
2018-05-29T09:06:10.899Z,58.58
2018-05-29T09:08:40.645Z,58.27
2018-05-29T09:11:09.036Z,57.66
2018-05-29T09:13:37.453Z,57.95
2018-05-29T09:16:07.102Z,57.29
2018-05-29T09:18:36.183Z,57.38
2018-05-29T09:21:05.887Z,57.90
2018-05-29T09:23:35.785Z,56.11
2018-05-29T09:26:04.162Z,56.99
2018-05-29T09:28:32.568Z,57.11
2018-05-29T09:31:01.791Z,57.28
2018-05-29T09:33:30.471Z,53.85
2018-05-29T09:35:59.507Z,55.12
2018-05-29T09:38:28.214Z,54.52
2018-05-29T09:40:56.512Z,54.19
2018-05-29T09:43:26.477Z,54.37
2018-05-29T09:45:54.981Z,55.46
2018-05-29T09:48:24.059Z,52.61
2018-05-29T09:50:52.320Z,52.79
2018-05-29T09:53:21.046Z,52.74
2018-05-29T09:55:49.753Z,51.11
2018-05-29T09:58:18.950Z,50.43
2018-05-29T10:00:49.689Z,50.27
2018-05-29T10:03:18.511Z,54.25
2018-05-29T10:05:46.827Z,53.23
2018-05-29T10:08:16.448Z,50.51
2018-05-29T10:10:45.114Z,48.50
2018-05-29T10:13:13.445Z,49.53
2018-05-29T10:15:43.659Z,49.12
2018-05-29T10:18:12.557Z,48.42
2018-05-29T10:20:42.665Z,48.94
2018-05-29T10:23:10.966Z,47.89
2018-05-29T10:25:39.394Z,48.02
2018-05-29T10:28:07.880Z,47.55
2018-05-29T10:30:36.895Z,48.47
2018-05-29T10:33:06.842Z,48.05
2018-05-29T10:35:35.925Z,49.93
2018-05-29T10:38:05.014Z,49.64
2018-05-29T10:40:34.281Z,48.01
2018-05-29T10:43:02.747Z,48.08
2018-05-29T10:45:31.056Z,47.77
2018-05-29T10:47:59.388Z,46.91
2018-05-29T10:50:28.090Z,47.93
2018-05-29T10:52:56.476Z,47.98
2018-05-29T10:55:25.652Z,49.39
2018-05-29T10:57:53.961Z,47.07
2018-05-29T11:00:22.778Z,47.99
2018-05-29T11:02:51.234Z,48.11
2018-05-29T11:05:20.415Z,47.19
2018-05-29T11:07:49.257Z,46.46
2018-05-29T11:10:17.590Z,45.40
2018-05-29T11:12:46.818Z,44.81
2018-05-29T11:15:15.362Z,44.73
2018-05-29T11:17:44.496Z,46.74
2018-05-29T11:20:12.807Z,46.96
2018-05-29T11:22:42.617Z,46.72
2018-05-29T11:25:10.918Z,47.89
2018-05-29T11:27:40.362Z,46.71
2018-05-29T11:30:08.879Z,46.73
2018-05-29T11:32:37.756Z,47.14
2018-05-29T11:35:06.247Z,46.87
2018-05-29T11:37:34.540Z,48.30
2018-05-29T11:40:03.591Z,48.11
2018-05-29T11:42:31.934Z,46.54
2018-05-29T11:45:00.264Z,46.25
2018-05-29T11:47:29.262Z,47.12
2018-05-29T11:49:57.579Z,47.71
2018-05-29T11:52:27.035Z,44.96
2018-05-29T11:54:55.720Z,44.68
2018-05-29T11:57:24.389Z,44.47
2018-05-29T11:59:52.681Z,45.64
2018-05-29T12:02:21.297Z,45.31
2018-05-29T12:04:50.071Z,45.44
2018-05-29T12:07:19.275Z,43.91
2018-05-29T12:09:47.738Z,44.89
2018-05-29T12:12:27.068Z,43.33
2018-05-29T12:14:55.394Z,43.54
2018-05-29T12:17:24.559Z,43.00
2018-05-29T12:19:53.588Z,42.55
2018-05-29T12:22:23.611Z,40.36
2018-05-29T12:24:53.109Z,37.55
2018-05-29T12:27:21.456Z,35.38
2018-05-29T12:29:50.639Z,35.42
2018-05-29T12:32:19.739Z,30.55
2018-05-29T12:34:48.960Z,31.83
2018-05-29T12:37:17.342Z,31.98
2018-05-29T12:39:47.202Z,32.29
2018-05-29T12:42:16.535Z,31.89
2018-05-29T12:44:45.087Z,31.11
2018-05-29T12:47:13.377Z,29.94
2018-05-29T12:49:42.003Z,28.23
2018-05-29T12:52:10.743Z,27.59
2018-05-29T12:54:39.780Z,26.82
2018-05-29T12:57:08.276Z,26.33
2018-05-29T12:59:36.981Z,25.73
2018-05-29T13:02:05.304Z,24.93
2018-05-29T13:04:33.622Z,25.59
2018-05-29T13:07:02.738Z,24.98
2018-05-29T13:09:31.784Z,25.01
2018-05-29T13:12:00.113Z,25.19
2018-05-29T13:14:29.998Z,26.05
2018-05-29T13:16:58.331Z,26.13
2018-05-29T13:19:26.662Z,27.66
2018-05-29T13:21:54.962Z,25.78
2018-05-29T13:24:24.490Z,25.82
2018-05-29T13:26:53.648Z,24.58
2018-05-29T13:29:21.955Z,25.01
2018-05-29T13:31:52.380Z,23.93
2018-05-29T13:34:21.546Z,24.58
2018-05-29T13:36:50.697Z,24.77
2018-05-29T13:39:19.023Z,25.08
2018-05-29T13:41:47.984Z,23.63
2018-05-29T13:44:16.348Z,24.35
2018-05-29T13:46:45.115Z,25.06
2018-05-29T13:49:13.917Z,24.52
2018-05-29T13:51:42.197Z,24.07
2018-05-29T13:54:11.640Z,24.59
2018-05-29T13:56:40.354Z,24.33
2018-05-29T13:59:09.626Z,24.55
2018-05-29T14:01:37.995Z,24.40
2018-05-29T14:04:06.374Z,25.02
2018-05-29T14:06:34.706Z,24.31
2018-05-29T14:09:03.088Z,24.62
2018-05-29T14:11:31.995Z,24.42
2018-05-29T14:14:01.978Z,25.13
2018-05-29T14:16:31.226Z,25.28
2018-05-29T14:19:01.122Z,24.56
2018-05-29T14:21:30.915Z,24.90
2018-05-29T14:23:59.701Z,24.89
2018-05-29T14:26:27.980Z,24.79
2018-05-29T14:28:56.594Z,23.98
2018-05-29T14:31:25.685Z,24.22
2018-05-29T14:33:56.298Z,24.77
2018-05-29T14:36:24.588Z,24.15
2018-05-29T14:38:53.928Z,25.26
2018-05-29T14:41:22.219Z,25.22
2018-05-29T14:43:50.527Z,24.92
2018-05-29T14:46:19.181Z,24.13
2018-05-29T14:48:47.488Z,23.63
2018-05-29T14:51:17.031Z,24.35
2018-05-29T14:53:47.016Z,25.36
2018-05-29T14:56:16.061Z,23.36
2018-05-29T14:58:45.226Z,22.99
2018-05-29T15:01:15.343Z,21.82
2018-05-29T15:03:43.840Z,22.18
2018-05-29T15:06:15.737Z,22.44
2018-05-29T15:08:44.618Z,22.28
2018-05-29T15:11:13.103Z,22.64
2018-05-29T15:13:42.150Z,23.04
2018-05-29T15:16:10.510Z,22.28
2018-05-29T15:18:38.879Z,22.15
2018-05-29T15:21:07.902Z,22.21
2018-05-29T15:23:36.222Z,22.65
2018-05-29T15:26:06.081Z,21.66
2018-05-29T15:28:34.385Z,21.26
2018-05-29T15:31:03.352Z,21.66
2018-05-29T15:33:31.686Z,21.67
2018-05-29T15:36:01.632Z,22.31
2018-05-29T15:38:30.438Z,21.37
2018-05-29T15:40:59.362Z,20.71
2018-05-29T15:43:27.660Z,21.00
2018-05-29T15:45:56.810Z,21.70
2018-05-29T15:48:25.109Z,21.53
2018-05-29T15:50:53.467Z,22.36
2018-05-29T15:53:22.637Z,20.87
2018-05-29T15:55:51.685Z,21.60
2018-05-29T15:58:20.027Z,21.35
2018-05-29T16:00:48.846Z,21.82
2018-05-29T16:03:17.130Z,21.49
2018-05-29T16:05:45.563Z,21.52
2018-05-29T16:08:13.849Z,21.73
2018-05-29T16:10:42.134Z,22.39
2018-05-29T16:13:10.447Z,23.72
2018-05-29T16:15:38.906Z,22.84
2018-05-29T16:18:07.205Z,23.14
2018-05-29T16:20:35.529Z,22.36
2018-05-29T16:23:03.830Z,23.39
2018-05-29T16:25:32.117Z,23.20
2018-05-29T16:28:00.490Z,23.29
2018-05-29T16:30:28.884Z,24.38
2018-05-29T16:32:57.178Z,23.50
2018-05-29T16:35:25.568Z,24.17
2018-05-29T16:37:53.922Z,24.07
2018-05-29T16:40:22.219Z,23.36
2018-05-29T16:42:50.583Z,24.03
2018-05-29T16:45:18.968Z,24.21
2018-05-29T16:47:47.340Z,24.71
2018-05-29T16:50:16.505Z,25.14
2018-05-29T16:52:44.852Z,24.41
2018-05-29T16:55:14.157Z,24.13
2018-05-29T16:57:43.229Z,25.37
2018-05-29T17:00:12.207Z,26.49
2018-05-29T17:02:40.712Z,26.01
2018-05-29T17:05:09.842Z,27.07
2018-05-29T17:07:38.450Z,28.28
2018-05-29T17:10:06.752Z,29.43
2018-05-29T17:12:35.059Z,29.81
2018-05-29T17:15:04.160Z,30.30
2018-05-29T17:17:32.472Z,30.46
2018-05-29T17:20:01.849Z,32.11
2018-05-29T17:22:31.005Z,32.09
2018-05-29T17:24:59.534Z,32.80
2018-05-29T17:27:28.628Z,32.54
2018-05-29T17:29:57.766Z,33.20
2018-05-29T17:32:26.059Z,34.06
2018-05-29T17:34:54.363Z,35.92
2018-05-29T17:37:22.711Z,37.38
2018-05-29T17:39:51.027Z,37.83
2018-05-29T17:42:20.916Z,37.85
2018-05-29T17:44:49.390Z,37.21
2018-05-29T17:47:18.106Z,38.17
2018-05-29T17:49:46.412Z,38.30
2018-05-29T17:52:17.170Z,38.62
2018-05-29T17:54:46.854Z,38.39
2018-05-29T17:57:16.681Z,39.20
2018-05-29T17:59:45.290Z,39.65
2018-05-29T18:02:14.840Z,40.68
2018-05-29T18:04:44.138Z,41.47
2018-05-29T18:07:13.745Z,40.98
2018-05-29T18:09:42.032Z,42.02
2018-05-29T18:12:11.402Z,42.86
2018-05-29T18:14:39.858Z,43.74
2018-05-29T18:17:08.378Z,43.62
2018-05-29T18:19:36.783Z,44.85
2018-05-29T18:22:05.842Z,44.76
2018-05-29T18:24:34.254Z,45.52
2018-05-29T18:27:02.617Z,46.05
2018-05-29T18:29:30.913Z,46.17
2018-05-29T18:31:59.598Z,46.32
2018-05-29T18:34:28.368Z,47.75
2018-05-29T18:36:56.667Z,47.68
2018-05-29T18:39:26.015Z,48.92
2018-05-29T18:41:54.363Z,49.04
2018-05-29T18:44:23.777Z,48.81
2018-05-29T18:46:53.542Z,49.74
2018-05-29T18:49:22.432Z,48.83
2018-05-29T18:51:50.821Z,49.73
2018-05-29T18:54:19.497Z,50.65
2018-05-29T18:56:47.888Z,51.34
2018-05-29T18:59:17.049Z,51.49
2018-05-29T19:01:45.355Z,53.00
2018-05-29T19:04:14.206Z,53.99
2018-05-29T19:06:42.537Z,52.82
2018-05-29T19:09:11.654Z,53.86
2018-05-29T19:11:40.734Z,54.06
2018-05-29T19:14:09.103Z,54.09
2018-05-29T19:16:38.045Z,53.88
2018-05-29T19:19:06.517Z,53.75
2018-05-29T19:21:35.624Z,53.99
2018-05-29T19:24:03.891Z,54.11
2018-05-29T19:26:32.961Z,54.15
2018-05-29T19:29:01.739Z,54.72
2018-05-29T19:31:30.426Z,55.23
2018-05-29T19:33:58.721Z,54.68
2018-05-29T19:36:27.079Z,55.51
2018-05-29T19:38:55.784Z,55.70
2018-05-29T19:41:24.610Z,56.31
2018-05-29T19:43:53.700Z,56.09
2018-05-29T19:46:22.788Z,56.73
2018-05-29T19:48:51.864Z,56.90
2018-05-29T19:51:20.359Z,56.70
2018-05-29T19:53:48.667Z,57.52
2018-05-29T19:56:16.996Z,57.81
2018-05-29T19:58:46.813Z,57.60
2018-05-29T20:01:15.425Z,57.28
2018-05-29T20:03:43.861Z,58.19
2018-05-29T20:06:12.661Z,58.70
2018-05-29T20:08:41.461Z,59.40
2018-05-29T20:11:09.785Z,59.58
2018-05-29T20:13:38.129Z,59.58
2018-05-29T20:16:06.728Z,59.91
2018-05-29T20:18:35.806Z,59.62
2018-05-29T20:21:04.114Z,59.53
2018-05-29T20:23:32.913Z,60.29
2018-05-29T20:26:01.204Z,60.42
2018-05-29T20:28:29.623Z,60.15
2018-05-29T20:30:57.986Z,60.16
2018-05-29T20:33:26.796Z,60.70
2018-05-29T20:35:55.121Z,60.36
2018-05-29T20:38:23.688Z,60.46
2018-05-29T20:40:52.794Z,60.44
2018-05-29T20:43:21.131Z,60.61
2018-05-29T20:48:48.073Z,60.99
2018-05-29T20:51:16.357Z,60.94
2018-05-29T20:53:44.661Z,60.59
2018-05-29T20:56:13.543Z,61.01
2018-05-29T20:58:41.998Z,60.63
2018-05-29T21:01:10.293Z,60.47
2018-05-29T21:03:38.628Z,60.83
2018-05-29T21:06:06.921Z,60.12
2018-05-29T21:08:35.619Z,61.10
2018-05-29T21:11:04.023Z,61.26
2018-05-29T21:13:32.778Z,61.24
2018-05-29T21:16:01.626Z,60.70
2018-05-29T21:18:29.954Z,60.95
2018-05-29T21:20:58.249Z,60.98
2018-05-29T21:23:26.583Z,61.03
2018-05-29T21:25:56.476Z,60.94
2018-05-29T21:28:24.825Z,61.03
2018-05-29T21:30:53.315Z,60.91
2018-05-29T21:33:21.751Z,60.36
2018-05-29T21:35:50.061Z,60.75
2018-05-29T21:38:18.394Z,61.05
2018-05-29T21:40:47.578Z,61.32
2018-05-29T21:43:16.496Z,60.94
2018-05-29T21:45:45.105Z,61.37
2018-05-29T21:48:13.533Z,61.53
2018-05-29T21:50:41.845Z,61.67
2018-05-29T21:53:11.149Z,61.38
2018-05-29T21:55:40.034Z,61.57
2018-05-29T21:58:08.989Z,61.12
2018-05-29T22:00:38.080Z,61.54
2018-05-29T22:03:06.402Z,61.50
2018-05-29T22:05:35.572Z,61.63
2018-05-29T22:08:03.909Z,62.29
2018-05-29T22:10:33.144Z,61.97
2018-05-29T22:13:01.850Z,62.08
2018-05-29T22:15:31.869Z,62.34
2018-05-29T22:18:00.978Z,61.93
2018-05-29T22:20:30.123Z,61.81
2018-05-29T22:22:58.723Z,61.95
2018-05-29T22:25:28.654Z,62.32
2018-05-29T22:27:58.467Z,61.87
2018-05-29T22:30:26.883Z,62.07
2018-05-29T22:32:55.250Z,61.95
2018-05-29T22:35:24.316Z,61.97
2018-05-29T22:37:54.202Z,61.96
2018-05-29T22:40:22.531Z,62.31
2018-05-29T22:42:51.619Z,62.39
2018-05-29T22:45:20.327Z,62.02
2018-05-29T22:47:49.653Z,61.80
2018-05-29T22:50:17.978Z,61.83
2018-05-29T22:52:47.777Z,61.21
2018-05-29T22:55:16.094Z,61.11
2018-05-29T22:57:45.310Z,61.25
2018-05-29T23:00:15.518Z,60.99
2018-05-29T23:02:44.591Z,61.52
2018-05-29T23:05:14.386Z,61.40
2018-05-29T23:07:42.735Z,61.61
2018-05-29T23:10:11.100Z,63.17
2018-05-29T23:12:39.431Z,62.85
2018-05-29T23:15:08.218Z,62.79
2018-05-29T23:17:37.358Z,62.32
2018-05-29T23:20:06.450Z,62.35
2018-05-29T23:22:35.586Z,62.09
2018-05-29T23:25:03.903Z,61.90
2018-05-29T23:27:32.228Z,62.16
2018-05-29T23:30:00.780Z,62.95
2018-05-29T23:32:30.406Z,62.58
2018-05-29T23:34:59.499Z,62.33
2018-05-29T23:37:27.909Z,63.01
2018-05-29T23:39:57.935Z,62.71
2018-05-29T23:42:26.238Z,62.62
2018-05-29T23:44:54.592Z,62.89
2018-05-29T23:47:22.958Z,62.60
2018-05-29T23:49:54.614Z,62.38
2018-05-29T23:52:22.899Z,62.81
2018-05-29T23:54:51.200Z,62.78
2018-05-29T23:57:19.707Z,63.03
2018-05-29T23:59:48.035Z,62.83
